createdAt,value
2022-10-25T00:01:31.591Z,14.69
2022-10-25T00:03:33.258Z,14.67
2022-10-25T00:05:35.542Z,14.68
2022-10-25T00:07:37.201Z,14.68
2022-10-25T00:09:39.045Z,14.67
2022-10-25T00:11:40.669Z,14.67
2022-10-25T00:13:42.270Z,14.64
2022-10-25T00:15:44.026Z,14.61
2022-10-25T00:17:45.803Z,14.59
2022-10-25T00:19:47.681Z,14.59
2022-10-25T00:21:49.362Z,14.52
2022-10-25T00:23:52.042Z,14.53
2022-10-25T00:26:01.852Z,14.54
2022-10-25T00:28:03.528Z,14.51
2022-10-25T00:30:07.058Z,14.42
2022-10-25T00:32:08.760Z,14.32
2022-10-25T00:34:10.423Z,14.18
2022-10-25T00:36:20.526Z,14.03
2022-10-25T00:38:22.190Z,13.89
2022-10-25T00:40:23.859Z,13.86
2022-10-25T00:42:27.401Z,13.88
2022-10-25T00:44:40.983Z,13.96
2022-10-25T00:46:43.885Z,14.02
2022-10-25T00:49:01.714Z,14.07
2022-10-25T00:51:04.183Z,14.07
2022-10-25T00:53:10.257Z,14.07
2022-10-25T00:55:12.833Z,14.07
2022-10-25T00:57:41.787Z,14.04
2022-10-25T00:59:44.756Z,14.01
2022-10-25T01:01:46.565Z,14.00
2022-10-25T01:03:49.336Z,13.98
2022-10-25T01:05:51.788Z,13.97
2022-10-25T01:07:53.418Z,13.97
2022-10-25T01:09:56.126Z,14.01
2022-10-25T01:11:57.932Z,14.02
2022-10-25T01:13:59.542Z,13.97
2022-10-25T01:16:15.687Z,13.98
2022-10-25T01:18:22.634Z,14.02
2022-10-25T01:20:56.582Z,14.06
2022-10-25T01:23:28.372Z,14.02
2022-10-25T01:25:54.661Z,13.99
2022-10-25T01:28:05.496Z,13.97
2022-10-25T01:30:25.392Z,13.97
2022-10-25T01:32:39.203Z,13.93
2022-10-25T01:34:53.451Z,13.91
2022-10-25T01:36:58.145Z,13.95
2022-10-25T01:39:23.654Z,13.93
2022-10-25T01:41:32.775Z,13.86
2022-10-25T01:43:42.421Z,13.85
2022-10-25T01:45:52.789Z,13.83
2022-10-25T01:48:03.760Z,13.80
2022-10-25T01:50:08.788Z,13.80
2022-10-25T01:52:10.434Z,13.78
2022-10-25T01:54:25.045Z,13.79
2022-10-25T01:56:40.755Z,13.80
2022-10-25T01:59:00.865Z,13.79
2022-10-25T02:01:25.759Z,13.76
2022-10-25T02:03:43.205Z,13.79
2022-10-25T02:05:47.798Z,13.85
2022-10-25T02:08:05.144Z,13.80
2022-10-25T02:10:17.888Z,13.67
2022-10-25T02:12:25.611Z,13.58
2022-10-25T02:14:38.732Z,13.51
2022-10-25T02:16:45.217Z,13.50
2022-10-25T02:18:49.606Z,13.54
2022-10-25T02:20:52.558Z,13.58
2022-10-25T02:22:55.051Z,13.60
2022-10-25T02:24:57.917Z,13.58
2022-10-25T02:27:00.497Z,13.63
2022-10-25T02:29:03.959Z,13.64
2022-10-25T02:31:17.729Z,13.67
2022-10-25T02:33:19.312Z,13.64
2022-10-25T02:35:21.025Z,13.63
2022-10-25T02:37:22.739Z,13.63
2022-10-25T02:39:29.179Z,13.63
2022-10-25T02:41:33.925Z,13.64
2022-10-25T02:43:35.658Z,13.63
2022-10-25T02:45:37.246Z,13.58
2022-10-25T02:47:38.915Z,13.53
2022-10-25T02:49:40.485Z,13.35
2022-10-25T02:51:42.084Z,13.22
2022-10-25T02:53:44.150Z,13.19
2022-10-25T02:55:45.841Z,13.21
2022-10-25T02:57:47.434Z,13.25
2022-10-25T02:59:49.528Z,13.26
2022-10-25T03:01:51.188Z,13.26
2022-10-25T03:03:53.021Z,13.30
2022-10-25T03:05:54.952Z,13.22
2022-10-25T03:07:56.529Z,13.20
2022-10-25T03:09:58.176Z,13.04
2022-10-25T03:11:59.840Z,12.99
2022-10-25T03:14:01.405Z,12.98
2022-10-25T03:16:03.586Z,12.97
2022-10-25T03:18:05.304Z,12.84
2022-10-25T03:20:07.668Z,12.60
2022-10-25T03:22:09.389Z,12.46
2022-10-25T03:24:11.000Z,12.39
2022-10-25T03:26:12.625Z,12.44
2022-10-25T03:28:14.468Z,12.30
2022-10-25T03:30:16.560Z,12.13
2022-10-25T03:32:18.144Z,12.17
2022-10-25T03:34:19.908Z,12.26
2022-10-25T03:36:21.529Z,12.35
2022-10-25T03:38:23.364Z,12.45
2022-10-25T03:40:25.035Z,12.55
2022-10-25T03:42:26.849Z,12.65
2022-10-25T03:44:28.508Z,12.71
2022-10-25T03:46:30.144Z,12.77
2022-10-25T03:48:31.722Z,12.83
2022-10-25T03:50:33.414Z,12.86
2022-10-25T03:52:35.525Z,12.89
2022-10-25T03:54:37.208Z,12.88
2022-10-25T03:56:38.804Z,12.90
2022-10-25T03:58:40.513Z,12.90
2022-10-25T04:00:42.251Z,12.92
2022-10-25T04:02:43.864Z,12.95
2022-10-25T04:04:45.484Z,12.96
2022-10-25T04:06:47.092Z,12.98
2022-10-25T04:08:48.722Z,12.97
2022-10-25T04:10:50.551Z,12.97
2022-10-25T04:12:53.880Z,12.99
2022-10-25T04:14:56.322Z,13.01
2022-10-25T04:16:57.972Z,13.02
2022-10-25T04:18:59.634Z,13.02
2022-10-25T04:21:01.304Z,13.03
2022-10-25T04:23:02.945Z,13.04
2022-10-25T04:25:04.933Z,13.02
2022-10-25T04:27:06.543Z,13.00
2022-10-25T04:29:08.420Z,12.97
2022-10-25T04:31:10.224Z,12.88
2022-10-25T04:33:11.825Z,12.73
2022-10-25T04:35:13.580Z,12.54
2022-10-25T04:37:15.172Z,12.20
2022-10-25T04:39:16.788Z,11.97
2022-10-25T04:41:19.265Z,12.03
2022-10-25T04:43:20.862Z,12.01
2022-10-25T04:45:22.554Z,11.94
2022-10-25T04:47:24.240Z,12.02
2022-10-25T04:49:25.846Z,12.16
2022-10-25T04:51:27.419Z,12.24
2022-10-25T04:53:29.070Z,12.33
2022-10-25T04:55:31.546Z,12.43
2022-10-25T04:57:33.220Z,12.48
2022-10-25T04:59:34.873Z,12.54
2022-10-25T05:01:36.613Z,12.47
2022-10-25T05:03:38.847Z,12.37
2022-10-25T05:05:40.597Z,12.36
2022-10-25T05:07:42.197Z,12.33
2022-10-25T05:09:46.598Z,12.30
2022-10-25T05:11:49.527Z,12.39
2022-10-25T05:13:51.143Z,12.45
2022-10-25T05:15:56.322Z,12.52
2022-10-25T05:18:01.590Z,12.56
2022-10-25T05:20:03.549Z,12.67
2022-10-25T05:22:05.163Z,12.81
2022-10-25T05:24:06.843Z,12.88
2022-10-25T05:26:11.174Z,12.91
2022-10-25T05:28:12.766Z,12.95
2022-10-25T05:30:14.364Z,12.97
2022-10-25T05:32:16.209Z,13.01
2022-10-25T05:34:17.801Z,13.04
2022-10-25T05:36:19.771Z,13.06
2022-10-25T05:38:21.417Z,13.10
2022-10-25T05:40:23.014Z,13.09
2022-10-25T05:42:24.605Z,13.11
2022-10-25T05:44:26.398Z,13.11
2022-10-25T05:46:28.055Z,13.19
2022-10-25T05:48:29.687Z,13.21
2022-10-25T05:50:31.390Z,13.24
2022-10-25T05:52:32.988Z,13.33
2022-10-25T05:54:34.584Z,13.41
2022-10-25T05:56:36.979Z,13.52
2022-10-25T05:58:38.863Z,13.60
2022-10-25T06:00:40.435Z,13.66
2022-10-25T06:02:42.018Z,13.70
2022-10-25T06:04:43.577Z,13.76
2022-10-25T06:06:47.156Z,13.83
2022-10-25T06:08:48.857Z,13.88
2022-10-25T06:10:50.476Z,13.96
2022-10-25T06:12:52.136Z,14.02
2022-10-25T06:14:53.745Z,14.04
2022-10-25T06:16:55.349Z,14.11
2022-10-25T06:18:57.203Z,14.06
2022-10-25T06:21:03.605Z,14.10
2022-10-25T06:23:08.058Z,14.14
2022-10-25T06:25:12.087Z,14.13
2022-10-25T06:27:13.641Z,14.21
2022-10-25T06:29:15.323Z,14.28
2022-10-25T06:31:18.638Z,14.42
2022-10-25T06:33:22.332Z,14.53
2022-10-25T06:35:24.958Z,14.66
2022-10-25T06:37:26.585Z,14.79
2022-10-25T06:39:28.177Z,14.92
2022-10-25T06:41:31.472Z,15.03
2022-10-25T06:43:35.031Z,15.11
2022-10-25T06:45:36.663Z,15.19
2022-10-25T06:47:38.226Z,15.15
2022-10-25T06:49:39.927Z,15.13
2022-10-25T06:51:41.483Z,15.15
2022-10-25T06:53:43.189Z,15.24
2022-10-25T06:55:47.224Z,15.26
2022-10-25T06:57:48.852Z,15.25
2022-10-25T06:59:50.661Z,15.24
2022-10-25T07:01:52.641Z,15.32
2022-10-25T07:03:55.270Z,15.39
2022-10-25T07:06:01.087Z,15.36
2022-10-25T07:08:02.934Z,15.31
2022-10-25T07:10:04.831Z,15.24
2022-10-25T07:12:12.286Z,15.35
2022-10-25T07:14:14.588Z,15.25
2022-10-25T07:16:18.230Z,15.33
2022-10-25T07:18:19.873Z,15.03
2022-10-25T07:20:21.656Z,14.97
2022-10-25T07:22:23.231Z,15.09
2022-10-25T07:24:24.792Z,15.30
2022-10-25T07:26:31.833Z,15.55
2022-10-25T07:28:33.462Z,15.80
2022-10-25T07:30:35.229Z,15.98
2022-10-25T07:32:41.452Z,16.13
2022-10-25T07:34:44.207Z,16.25
2022-10-25T07:36:45.778Z,16.40
2022-10-25T07:38:47.467Z,16.57
2022-10-25T07:40:55.340Z,16.52
2022-10-25T07:42:56.936Z,16.52
2022-10-25T07:44:58.525Z,16.54
2022-10-25T07:47:00.195Z,16.52
2022-10-25T07:49:01.792Z,16.55
2022-10-25T07:51:14.134Z,16.59
2022-10-25T07:53:15.891Z,16.67
2022-10-25T07:55:17.501Z,16.77
2022-10-25T07:57:19.101Z,16.97
2022-10-25T07:59:22.009Z,17.17
2022-10-25T08:01:25.456Z,17.37
2022-10-25T08:03:27.149Z,17.56
2022-10-25T08:05:28.948Z,17.66
2022-10-25T08:07:30.574Z,17.80
2022-10-25T08:09:38.412Z,17.89
2022-10-25T08:11:40.817Z,17.94
2022-10-25T08:13:42.450Z,17.55
2022-10-25T08:15:51.310Z,17.46
2022-10-25T08:18:03.122Z,17.45
2022-10-25T08:20:05.108Z,17.52
2022-10-25T08:22:06.736Z,17.65
2022-10-25T08:24:08.591Z,17.82
2022-10-25T08:26:10.286Z,18.03
2022-10-25T08:28:12.377Z,18.25
2022-10-25T08:30:14.046Z,18.45
2022-10-25T08:32:15.593Z,18.53
2022-10-25T08:34:17.163Z,18.37
2022-10-25T08:36:18.793Z,18.19
2022-10-25T08:38:20.401Z,18.36
2022-10-25T08:40:25.811Z,18.58
2022-10-25T08:42:55.034Z,18.77
2022-10-25T08:45:11.142Z,18.92
2022-10-25T08:47:20.700Z,19.08
2022-10-25T08:49:29.596Z,18.98
2022-10-25T08:51:37.098Z,19.06
2022-10-25T08:53:43.158Z,19.18
2022-10-25T08:58:13.585Z,19.54
2022-10-25T09:00:23.264Z,19.71
2022-10-25T09:02:45.906Z,19.87
2022-10-25T09:04:47.646Z,20.00
2022-10-25T09:07:01.234Z,20.15
2022-10-25T09:09:33.667Z,20.24
2022-10-25T09:11:45.160Z,20.36
2022-10-25T09:14:09.139Z,20.45
2022-10-25T09:16:20.687Z,20.51
2022-10-25T09:18:36.861Z,20.61
2022-10-25T09:20:46.021Z,20.71
2022-10-25T09:22:58.137Z,20.45
2022-10-25T09:25:21.127Z,20.16
2022-10-25T09:27:32.294Z,19.99
2022-10-25T09:30:15.294Z,19.86
2022-10-25T09:32:29.476Z,19.95
2022-10-25T09:34:35.620Z,19.86
2022-10-25T09:36:43.330Z,19.83
2022-10-25T09:38:52.917Z,19.98
2022-10-25T09:41:05.831Z,20.08
2022-10-25T09:43:14.606Z,20.22
2022-10-25T09:45:19.161Z,20.12
2022-10-25T09:47:48.886Z,20.28
2022-10-25T09:50:24.961Z,20.46
2022-10-25T09:52:40.868Z,20.72
2022-10-25T09:54:47.868Z,20.93
2022-10-25T09:56:49.616Z,21.09
2022-10-25T09:58:51.277Z,21.20
2022-10-25T10:00:54.845Z,21.34
2022-10-25T10:02:56.508Z,21.47
2022-10-25T10:04:58.576Z,21.52
2022-10-25T10:07:07.979Z,21.56
2022-10-25T10:09:12.510Z,21.57
2022-10-25T10:11:16.236Z,21.59
2022-10-25T10:13:17.804Z,21.64
2022-10-25T10:15:26.060Z,21.67
2022-10-25T10:17:30.115Z,21.74
2022-10-25T10:19:31.846Z,21.78
2022-10-25T10:21:34.460Z,21.80
2022-10-25T10:23:43.862Z,21.79
2022-10-25T10:25:45.647Z,21.82
2022-10-25T10:27:49.188Z,21.84
2022-10-25T10:29:53.894Z,21.88
2022-10-25T10:32:00.235Z,21.91
2022-10-25T10:34:02.139Z,21.93
2022-10-25T10:36:27.202Z,21.96
2022-10-25T10:38:29.281Z,21.92
2022-10-25T10:40:31.091Z,21.96
2022-10-25T10:42:32.713Z,22.01
2022-10-25T10:44:34.841Z,22.02
2022-10-25T10:46:36.708Z,21.94
2022-10-25T10:48:45.508Z,21.86
2022-10-25T10:50:51.320Z,21.89
2022-10-25T10:52:59.446Z,21.98
2022-10-25T10:55:02.372Z,22.07
2022-10-25T10:57:05.424Z,21.99
2022-10-25T10:59:24.869Z,22.11
2022-10-25T11:01:35.464Z,22.16
2022-10-25T11:03:53.511Z,22.31
2022-10-25T11:06:02.506Z,22.38
2022-10-25T11:08:07.039Z,22.38
2022-10-25T11:10:23.660Z,22.35
2022-10-25T11:12:25.509Z,22.21
2022-10-25T11:14:27.119Z,22.17
2022-10-25T11:16:32.432Z,22.39
2022-10-25T11:18:56.144Z,22.62
2022-10-25T11:21:26.153Z,22.81
2022-10-25T11:23:43.320Z,22.96
2022-10-25T11:25:52.416Z,23.09
2022-10-25T11:28:12.372Z,23.16
2022-10-25T11:30:19.597Z,23.23
2022-10-25T11:32:55.053Z,23.30
2022-10-25T11:35:06.545Z,23.17
2022-10-25T11:37:21.627Z,23.26
2022-10-25T11:39:38.194Z,23.40
2022-10-25T11:41:48.549Z,23.48
2022-10-25T11:43:50.098Z,23.54
2022-10-25T11:46:18.273Z,23.67
2022-10-25T11:48:25.781Z,23.79
2022-10-25T11:50:41.143Z,23.81
2022-10-25T11:52:56.863Z,23.86
2022-10-25T11:55:18.389Z,23.92
2022-10-25T11:57:37.415Z,23.88
2022-10-25T11:59:45.490Z,23.95
2022-10-25T12:01:53.453Z,24.02
2022-10-25T12:04:53.507Z,24.04
2022-10-25T12:06:58.283Z,24.06
2022-10-25T12:09:21.256Z,24.08
2022-10-25T12:11:30.063Z,24.02
2022-10-25T12:13:42.364Z,24.01
2022-10-25T12:15:47.168Z,24.06
2022-10-25T12:17:50.180Z,24.04
2022-10-25T12:19:54.812Z,24.07
2022-10-25T12:22:01.929Z,24.10
2022-10-25T12:24:05.509Z,24.11
2022-10-25T12:26:12.196Z,24.14
2022-10-25T12:28:37.649Z,24.17
2022-10-25T12:30:40.391Z,24.19
2022-10-25T12:32:44.889Z,24.20
2022-10-25T12:34:51.546Z,24.17
2022-10-25T12:36:56.401Z,24.07
2022-10-25T12:39:03.326Z,23.96
2022-10-25T12:41:09.017Z,24.03
2022-10-25T12:43:31.420Z,24.10
2022-10-25T12:45:39.038Z,24.07
2022-10-25T12:47:40.768Z,24.00
2022-10-25T12:50:23.282Z,24.01
2022-10-25T12:52:40.217Z,23.88
2022-10-25T12:55:02.943Z,23.89
2022-10-25T12:57:14.397Z,24.00
2022-10-25T12:59:42.845Z,23.94
2022-10-25T13:02:21.381Z,23.95
2022-10-25T13:04:33.718Z,23.93
2022-10-25T13:06:38.970Z,24.01
2022-10-25T13:08:41.036Z,24.04
2022-10-25T13:10:47.008Z,24.02
2022-10-25T13:13:03.833Z,23.85
2022-10-25T13:15:06.097Z,23.77
2022-10-25T13:17:16.882Z,23.87
2022-10-25T13:19:35.865Z,23.97
2022-10-25T13:21:54.646Z,24.01
2022-10-25T13:24:00.250Z,24.04
2022-10-25T13:26:06.035Z,24.04
2022-10-25T13:28:16.631Z,24.01
2022-10-25T13:32:24.714Z,24.08
2022-10-25T13:34:31.519Z,24.14
2022-10-25T13:36:56.163Z,24.19
2022-10-25T13:39:05.283Z,24.12
2022-10-25T13:41:19.739Z,24.10
2022-10-25T13:43:21.991Z,24.20
2022-10-25T13:45:33.459Z,24.21
2022-10-25T13:47:42.836Z,24.12
2022-10-25T13:49:47.576Z,23.91
2022-10-25T13:51:49.167Z,23.89
2022-10-25T13:53:54.050Z,23.86
2022-10-25T13:56:22.998Z,23.85
2022-10-25T13:58:31.959Z,23.89
2022-10-25T14:00:40.314Z,23.95
2022-10-25T14:03:09.626Z,23.94
2022-10-25T14:05:11.861Z,23.92
2022-10-25T14:07:45.704Z,23.86
2022-10-25T14:09:51.021Z,23.89
2022-10-25T14:12:01.945Z,23.93
2022-10-25T14:14:23.460Z,23.98
2022-10-25T14:16:29.443Z,24.01
2022-10-25T14:18:34.176Z,23.95
2022-10-25T14:20:36.701Z,23.88
2022-10-25T14:22:52.131Z,23.82
2022-10-25T14:24:54.654Z,23.75
2022-10-25T14:27:01.418Z,23.67
2022-10-25T14:29:14.356Z,23.58
2022-10-25T14:31:22.154Z,23.58
2022-10-25T14:33:33.823Z,23.50
2022-10-25T14:35:47.104Z,23.42
2022-10-25T14:37:48.995Z,23.35
2022-10-25T14:39:53.949Z,23.28
2022-10-25T14:42:00.846Z,23.21
2022-10-25T14:44:03.333Z,23.15
2022-10-25T14:46:14.287Z,23.11
2022-10-25T14:48:15.874Z,23.07
2022-10-25T14:50:23.308Z,23.06
2022-10-25T14:52:26.231Z,23.05
2022-10-25T14:54:34.925Z,23.02
2022-10-25T14:56:42.635Z,23.05
2022-10-25T14:58:44.267Z,23.02
2022-10-25T15:00:58.168Z,22.98
2022-10-25T15:03:01.372Z,22.93
2022-10-25T15:05:03.995Z,22.82
2022-10-25T15:07:06.395Z,22.75
2022-10-25T15:09:41.835Z,22.68
2022-10-25T15:11:39.873Z,22.57
2022-10-25T15:13:43.397Z,22.51
2022-10-25T15:15:46.736Z,22.44
2022-10-25T15:17:52.420Z,22.37
2022-10-25T15:19:59.309Z,22.27
2022-10-25T15:22:10.945Z,22.18
2022-10-25T15:24:24.109Z,22.12
2022-10-25T15:26:26.856Z,22.04
2022-10-25T15:28:48.047Z,21.97
2022-10-25T15:30:49.657Z,21.93
2022-10-25T15:32:51.250Z,21.86
2022-10-25T15:34:54.741Z,21.84
2022-10-25T15:36:56.342Z,21.82
2022-10-25T15:39:11.748Z,21.79
2022-10-25T15:41:18.014Z,21.74
2022-10-25T15:43:19.819Z,21.66
2022-10-25T15:45:21.429Z,21.63
2022-10-25T15:47:33.989Z,21.60
2022-10-25T15:49:35.626Z,21.57
2022-10-25T15:51:39.496Z,21.58
2022-10-25T15:53:41.135Z,21.57
2022-10-25T15:55:42.797Z,21.56
2022-10-25T15:57:44.982Z,21.52
2022-10-25T15:59:46.675Z,21.47
2022-10-25T16:01:50.902Z,21.46
2022-10-25T16:03:52.609Z,21.44
2022-10-25T16:05:54.237Z,21.43
2022-10-25T16:07:55.983Z,21.39
2022-10-25T16:09:57.608Z,21.36
2022-10-25T16:11:59.917Z,21.26
2022-10-25T16:14:01.873Z,21.23
2022-10-25T16:16:11.755Z,21.20
2022-10-25T16:18:18.333Z,21.14
2022-10-25T16:20:28.660Z,21.11
2022-10-25T16:22:30.302Z,21.10
2022-10-25T16:24:31.957Z,21.05
2022-10-25T16:26:36.694Z,21.03
2022-10-25T16:28:40.581Z,21.00
2022-10-25T16:30:43.937Z,20.99
2022-10-25T16:32:46.105Z,20.96
2022-10-25T16:34:47.912Z,20.96
2022-10-25T16:36:50.638Z,20.96
2022-10-25T16:38:52.249Z,20.95
2022-10-25T16:40:53.818Z,20.93
2022-10-25T16:42:55.502Z,20.91
2022-10-25T16:44:57.414Z,20.92
2022-10-25T16:47:00.230Z,20.94
2022-10-25T16:49:02.358Z,20.90
2022-10-25T16:51:04.400Z,20.91
2022-10-25T16:53:10.324Z,20.92
2022-10-25T16:55:12.095Z,20.90
2022-10-25T16:57:14.717Z,20.89
2022-10-25T16:59:16.453Z,20.89
2022-10-25T17:01:34.680Z,20.89
2022-10-25T17:03:36.725Z,20.84
2022-10-25T17:05:39.905Z,20.86
2022-10-25T17:07:45.523Z,20.85
2022-10-25T17:09:47.231Z,20.82
2022-10-25T17:11:48.796Z,20.83
2022-10-25T17:13:50.369Z,20.83
2022-10-25T17:15:52.180Z,20.81
2022-10-25T17:17:53.767Z,20.79
2022-10-25T17:19:55.404Z,20.77
2022-10-25T17:21:57.522Z,20.77
2022-10-25T17:23:59.587Z,20.77
2022-10-25T17:26:02.118Z,20.76
2022-10-25T17:28:04.186Z,20.75
2022-10-25T17:30:07.234Z,20.76
2022-10-25T17:32:08.824Z,20.75
2022-10-25T17:34:10.722Z,20.76
2022-10-25T17:36:15.206Z,20.75
2022-10-25T17:38:17.106Z,20.75
2022-10-25T17:40:18.987Z,20.72
2022-10-25T17:42:20.652Z,20.70
2022-10-25T17:44:22.228Z,20.67
2022-10-25T17:46:27.912Z,20.63
2022-10-25T17:48:29.698Z,20.56
2022-10-25T17:50:32.015Z,20.54
2022-10-25T17:52:33.838Z,20.53
2022-10-25T17:54:37.300Z,20.50
2022-10-25T17:56:38.884Z,20.45
2022-10-25T17:58:45.221Z,20.46
2022-10-25T18:00:46.851Z,20.45
2022-10-25T18:02:50.783Z,20.36
2022-10-25T18:05:08.571Z,20.34
2022-10-25T18:07:15.250Z,20.32
2022-10-25T18:09:17.013Z,20.32
2022-10-25T18:11:22.365Z,20.07
2022-10-25T18:13:25.050Z,19.97
2022-10-25T18:15:26.764Z,19.97
2022-10-25T18:17:28.347Z,19.91
2022-10-25T18:19:29.960Z,19.82
2022-10-25T18:21:32.099Z,19.80
2022-10-25T18:23:34.137Z,19.75
2022-10-25T18:25:36.437Z,19.74
2022-10-25T18:27:38.019Z,19.79
2022-10-25T18:29:40.277Z,19.80
2022-10-25T18:31:41.853Z,19.77
2022-10-25T18:33:43.599Z,19.72
2022-10-25T18:35:45.241Z,19.72
2022-10-25T18:37:48.394Z,19.70
2022-10-25T18:39:50.195Z,19.63
2022-10-25T18:41:52.593Z,19.65
2022-10-25T18:43:54.967Z,19.63
2022-10-25T18:45:59.893Z,19.56
2022-10-25T18:48:01.843Z,19.56
2022-10-25T18:50:03.723Z,19.50
2022-10-25T18:52:06.021Z,19.48
2022-10-25T18:54:11.699Z,19.52
2022-10-25T18:56:17.103Z,19.53
2022-10-25T18:58:21.481Z,19.52
2022-10-25T19:00:27.711Z,19.51
2022-10-25T19:02:31.977Z,19.48
2022-10-25T19:04:35.842Z,19.49
2022-10-25T19:06:37.435Z,19.44
2022-10-25T19:08:39.464Z,19.33
2022-10-25T19:10:42.134Z,19.32
2022-10-25T19:12:43.799Z,19.29
2022-10-25T19:14:45.436Z,19.24
2022-10-25T19:16:47.121Z,19.27
2022-10-25T19:18:48.936Z,19.28
2022-10-25T19:20:50.512Z,19.29
2022-10-25T19:22:53.458Z,19.30
2022-10-25T19:24:55.048Z,19.29
2022-10-25T19:26:57.881Z,19.27
2022-10-25T19:29:00.964Z,19.24
2022-10-25T19:31:10.365Z,19.19
2022-10-25T19:33:11.971Z,19.20
2022-10-25T19:35:13.764Z,19.16
2022-10-25T19:37:15.371Z,19.12
2022-10-25T19:39:16.954Z,19.12
2022-10-25T19:41:22.801Z,19.09
2022-10-25T19:43:24.361Z,19.10
2022-10-25T19:45:26.286Z,19.10
2022-10-25T19:47:28.154Z,19.09
2022-10-25T19:49:29.739Z,18.98
2022-10-25T19:51:31.450Z,19.00
2022-10-25T19:53:33.546Z,18.95
2022-10-25T19:55:35.617Z,18.94
2022-10-25T19:57:37.185Z,18.90
2022-10-25T19:59:38.769Z,18.89
2022-10-25T20:01:40.529Z,18.86
2022-10-25T20:03:45.109Z,18.83
2022-10-25T20:05:46.696Z,18.83
2022-10-25T20:07:48.577Z,18.82
2022-10-25T20:09:50.355Z,18.75
2022-10-25T20:11:51.911Z,18.82
2022-10-25T20:13:55.011Z,18.85
2022-10-25T20:15:56.680Z,18.81
2022-10-25T20:17:58.225Z,18.81
2022-10-25T20:19:59.892Z,18.83
2022-10-25T20:22:01.465Z,18.87
2022-10-25T20:24:08.453Z,18.88
2022-10-25T20:26:15.689Z,18.86
2022-10-25T20:28:17.322Z,18.81
2022-10-25T20:30:18.967Z,18.79
2022-10-25T20:32:21.447Z,18.82
2022-10-25T20:34:23.172Z,18.82
2022-10-25T20:36:25.452Z,18.76
2022-10-25T20:38:27.125Z,18.72
2022-10-25T20:40:28.770Z,18.68
2022-10-25T20:42:30.429Z,18.70
2022-10-25T20:44:32.265Z,18.59
2022-10-25T20:46:34.077Z,18.62
2022-10-25T20:48:35.820Z,18.63
2022-10-25T20:50:37.448Z,18.57
2022-10-25T20:52:47.663Z,18.55
2022-10-25T20:54:49.839Z,18.59
2022-10-25T20:56:51.668Z,18.56
2022-10-25T20:58:53.292Z,18.49
2022-10-25T21:00:57.540Z,18.45
2022-10-25T21:02:59.782Z,18.41
2022-10-25T21:05:01.373Z,18.36
2022-10-25T21:07:03.780Z,18.34
2022-10-25T21:09:05.413Z,18.24
2022-10-25T21:11:09.494Z,18.20
2022-10-25T21:13:11.077Z,18.16
2022-10-25T21:15:12.672Z,18.14
2022-10-25T21:17:14.537Z,18.04
2022-10-25T21:19:16.191Z,18.04
2022-10-25T21:21:19.531Z,18.00
2022-10-25T21:23:21.329Z,18.01
2022-10-25T21:25:22.968Z,17.97
2022-10-25T21:27:24.870Z,17.87
2022-10-25T21:29:26.499Z,17.79
2022-10-25T21:31:28.094Z,17.76
2022-10-25T21:33:29.957Z,17.81
2022-10-25T21:35:32.336Z,17.83
2022-10-25T21:37:33.923Z,17.81
2022-10-25T21:39:35.598Z,17.76
2022-10-25T21:41:37.196Z,17.76
2022-10-25T21:43:45.426Z,17.79
2022-10-25T21:45:47.327Z,17.77
2022-10-25T21:47:49.152Z,17.73
2022-10-25T21:49:51.089Z,17.78
2022-10-25T21:51:52.678Z,17.76
2022-10-25T21:53:55.218Z,17.74
2022-10-25T21:56:14.881Z,17.74
2022-10-25T21:58:16.459Z,17.69
2022-10-25T22:00:21.317Z,17.72
2022-10-25T22:02:23.196Z,17.73
2022-10-25T22:04:26.101Z,17.73
2022-10-25T22:06:27.851Z,17.66
2022-10-25T22:08:29.682Z,17.70
2022-10-25T22:10:31.254Z,17.69
2022-10-25T22:12:32.833Z,17.70
2022-10-25T22:14:34.514Z,17.69
2022-10-25T22:16:36.480Z,17.65
2022-10-25T22:18:38.141Z,17.63
2022-10-25T22:20:39.734Z,17.58
2022-10-25T22:22:41.568Z,17.53
2022-10-25T22:24:43.175Z,17.56
2022-10-25T22:26:45.784Z,17.56
2022-10-25T22:28:51.937Z,17.59
2022-10-25T22:31:02.007Z,17.55
2022-10-25T22:33:03.589Z,17.55
2022-10-25T22:35:05.691Z,17.50
2022-10-25T22:37:07.411Z,17.49
2022-10-25T22:39:09.305Z,17.45
2022-10-25T22:41:16.226Z,17.49
2022-10-25T22:43:17.804Z,17.42
2022-10-25T22:45:19.405Z,17.40
2022-10-25T22:47:21.044Z,17.38
2022-10-25T22:49:22.913Z,17.38
2022-10-25T22:51:26.224Z,17.38
2022-10-25T22:53:28.520Z,17.37
2022-10-25T22:55:30.176Z,17.39
2022-10-25T22:57:31.787Z,17.39
2022-10-25T22:59:33.669Z,17.37
2022-10-25T23:01:36.654Z,17.35
2022-10-25T23:03:42.865Z,17.27
2022-10-25T23:05:44.758Z,17.28
2022-10-25T23:07:46.371Z,17.25
2022-10-25T23:09:47.964Z,17.26
2022-10-25T23:11:50.146Z,17.32
2022-10-25T23:13:52.257Z,17.34
2022-10-25T23:15:53.907Z,17.36
2022-10-25T23:17:55.580Z,17.36
2022-10-25T23:19:57.304Z,17.36
2022-10-25T23:21:58.914Z,17.35
2022-10-25T23:24:01.029Z,17.32
2022-10-25T23:26:02.769Z,17.34
2022-10-25T23:28:04.539Z,17.33
2022-10-25T23:30:09.850Z,17.30
2022-10-25T23:32:14.066Z,17.31
2022-10-25T23:34:15.704Z,17.23
2022-10-25T23:36:19.677Z,17.13
2022-10-25T23:38:21.338Z,17.13
2022-10-25T23:40:23.010Z,17.09
2022-10-25T23:42:24.688Z,17.11
2022-10-25T23:44:26.315Z,17.03
2022-10-25T23:46:28.167Z,16.84
2022-10-25T23:48:30.937Z,16.74
2022-10-25T23:50:32.548Z,16.70
2022-10-25T23:52:34.348Z,16.68
2022-10-25T23:54:35.971Z,16.54
2022-10-25T23:56:37.644Z,16.56
2022-10-25T23:58:39.512Z,16.57
